Time;durP1;ratioP1;P1;durP2;ratioP2;P2;SDS_P1;SDS_P2;PMS_P1;PMS_P2;Temp;Humidity;BMP_temperature;BMP_pressure;BME280_temperature;BME280_humidity;BME280_pressure;Samples;Min_cycle;Max_cycle;Signal;HPM_P1;HPM_P2
2022/06/02 00:02:21;;;;;;;6.72;5.60;;;8.80;99.90;;;;;;5072382;28;20073;-48
2022/06/02 00:05:15;;;;;;;5.63;5.05;;;8.80;99.90;;;;;;5092679;28;20050;-50
2022/06/02 00:08:04;;;;;;;6.40;4.72;;;8.70;99.90;;;;;;5087996;28;20385;-52
2022/06/02 00:10:40;;;;;;;6.40;5.70;;;8.70;99.90;;;;;;5088818;28;20020;-48
2022/06/02 00:13:20;;;;;;;5.68;5.07;;;8.70;99.90;;;;;;5066178;28;20036;-51
2022/06/02 00:15:52;;;;;;;5.75;4.82;;;8.60;99.90;;;;;;5070257;28;20028;-47
2022/06/02 00:18:32;;;;;;;6.70;5.32;;;8.60;99.90;;;;;;5090899;28;20012;-51
2022/06/02 00:21:36;;;;;;;5.90;5.40;;;8.60;99.90;;;;;;5089127;28;20055;-47
2022/06/02 00:24:19;;;;;;;7.55;5.70;;;8.50;99.90;;;;;;5077354;28;20024;-48
2022/06/02 00:26:50;;;;;;;5.60;4.95;;;8.50;99.90;;;;;;5098607;28;20103;-48
2022/06/02 00:29:55;;;;;;;5.70;5.20;;;8.40;99.90;;;;;;5093731;28;20036;-48
2022/06/02 00:32:36;;;;;;;6.30;5.70;;;8.40;99.90;;;;;;5067556;28;20012;-51
2022/06/02 00:35:15;;;;;;;6.18;5.43;;;8.40;99.90;;;;;;5078419;28;20112;-46
2022/06/02 00:37:49;;;;;;;7.00;6.18;;;8.30;99.90;;;;;;5070149;28;20494;-47
2022/06/02 00:40:15;;;;;;;8.68;6.00;;;8.30;99.90;;;;;;5089225;28;20042;-48
2022/06/02 00:43:15;;;;;;;7.68;6.25;;;8.20;99.90;;;;;;5099626;28;20020;-49
2022/06/02 00:45:46;;;;;;;7.25;6.15;;;8.20;99.90;;;;;;5073659;28;20020;-51
2022/06/02 00:48:35;;;;;;;6.10;5.50;;;8.20;99.90;;;;;;5079750;28;20389;-49
2022/06/02 00:51:11;;;;;;;6.25;5.65;;;8.20;99.90;;;;;;5088891;28;20378;-48
2022/06/02 00:53:40;;;;;;;;;;;8.10;99.90;;;;;;5087435;28;20126;-48
2022/06/02 00:59:37;;;;;;;9.00;7.47;;;8.10;99.90;;;;;;5089710;28;20749;-48
2022/06/02 01:02:04;;;;;;;6.53;5.00;;;8.10;99.90;;;;;;5088069;28;20036;-49
2022/06/02 01:04:29;;;;;;;7.25;6.30;;;8.00;99.90;;;;;;5095688;28;20047;-49
2022/06/02 01:07:13;;;;;;;6.82;6.22;;;8.00;99.90;;;;;;5090944;28;20023;-47
2022/06/02 01:09:44;;;;;;;6.60;5.88;;;8.00;99.90;;;;;;5076792;28;20395;-46
2022/06/02 01:12:13;;;;;;;8.20;6.80;;;7.90;99.90;;;;;;5069770;28;20102;-46
2022/06/02 01:15:06;;;;;;;8.73;6.32;;;7.90;99.90;;;;;;5092089;28;20024;-51
2022/06/02 01:17:44;;;;;;;7.78;6.75;;;7.90;99.90;;;;;;5076235;28;20030;-47
2022/06/02 01:20:29;;;;;;;8.27;6.53;;;7.80;99.90;;;;;;5070714;28;20016;-51
2022/06/02 01:23:14;;;;;;;8.23;7.07;;;7.80;99.90;;;;;;5071091;28;20093;-50
2022/06/02 01:26:06;;;;;;;7.97;7.00;;;7.80;99.90;;;;;;5092407;28;20020;-49
2022/06/02 01:28:40;;;;;;;8.93;7.05;;;7.80;99.90;;;;;;5072163;28;20024;-48
2022/06/02 01:31:09;;;;;;;7.93;6.72;;;7.70;99.90;;;;;;5090553;28;20456;-48
2022/06/02 01:34:05;;;;;;;8.93;7.43;;;7.70;99.90;;;;;;5073570;28;20023;-47
2022/06/02 01:37:06;;;;;;;8.75;7.70;;;7.70;99.90;;;;;;5088773;28;20012;-49
2022/06/02 01:39:58;;;;;;;9.30;7.68;;;7.60;99.90;;;;;;5067383;28;20027;-51
2022/06/02 01:42:45;;;;;;;9.60;7.35;;;7.60;99.90;;;;;;5065267;28;20773;-48
2022/06/02 01:45:15;;;;;;;;;;;7.60;99.90;;;;;;5097918;28;20043;-49
2022/06/02 01:47:43;;;;;;;8.90;7.15;;;7.60;99.90;;;;;;5090675;28;20370;-47
2022/06/02 01:50:46;;;;;;;9.02;7.97;;;7.50;99.90;;;;;;5095976;28;20066;-48
2022/06/02 01:53:21;;;;;;;8.25;7.45;;;7.50;99.90;;;;;;5070215;28;20321;-50
2022/06/02 01:55:56;;;;;;;8.80;7.80;;;7.50;99.90;;;;;;5075554;28;20023;-50
2022/06/02 01:58:50;;;;;;;8.57;7.27;;;7.40;99.90;;;;;;5085661;28;20069;-49
2022/06/02 02:01:37;;;;;;;9.60;7.90;;;7.40;99.90;;;;;;5088209;28;20259;-50
2022/06/02 02:04:31;;;;;;;8.85;7.93;;;7.40;99.90;;;;;;5091105;28;20077;-48
2022/06/02 02:07:36;;;;;;;12.20;9.13;;;7.40;99.90;;;;;;5091876;28;20430;-47
2022/06/02 02:10:33;;;;;;;10.52;8.73;;;7.40;99.90;;;;;;5087233;28;20023;-48
2022/06/02 02:13:34;;;;;;;9.00;7.95;;;7.40;99.90;;;;;;5091852;28;20440;-47
2022/06/02 02:16:11;;;;;;;9.05;7.90;;;7.30;99.90;;;;;;5089876;28;20078;-51
2022/06/02 02:18:51;;;;;;;9.18;7.85;;;7.30;99.90;;;;;;5097492;28;20023;-49
2022/06/02 02:21:55;;;;;;;8.55;7.63;;;7.30;99.90;;;;;;5078384;28;20020;-48
2022/06/02 02:24:41;;;;;;;8.80;7.88;;;7.30;99.90;;;;;;5089222;28;20091;-48
2022/06/02 02:27:10;;;;;;;9.80;8.80;;;7.20;99.90;;;;;;5087028;28;20016;-48
2022/06/02 02:30:10;;;;;;;11.07;8.27;;;7.20;99.90;;;;;;5091648;28;20103;-48
2022/06/02 02:32:56;;;;;;;9.23;7.97;;;7.20;99.90;;;;;;5082643;28;20115;-51
2022/06/02 02:35:29;;;;;;;;;;;7.20;99.90;;;;;;5068613;28;20032;-51
2022/06/02 02:38:03;;;;;;;8.60;7.72;;;7.10;99.90;;;;;;5082510;28;20449;-47
2022/06/02 02:40:39;;;;;;;9.15;8.05;;;7.20;99.90;;;;;;5090677;28;20028;-48
2022/06/02 02:43:30;;;;;;;9.77;8.60;;;7.10;99.90;;;;;;5097273;28;20031;-48
2022/06/02 02:46:06;;;;;;;10.23;8.40;;;7.10;99.90;;;;;;5090702;28;20111;-48
2022/06/02 02:48:49;;;;;;;10.27;9.20;;;7.10;99.90;;;;;;5094481;28;20056;-50
2022/06/02 02:51:40;;;;;;;9.68;7.93;;;7.10;99.90;;;;;;5071508;28;20449;-47
2022/06/02 02:54:16;;;;;;;9.05;8.15;;;7.10;99.90;;;;;;5076207;28;20431;-51
2022/06/02 02:57:24;;;;;;;10.40;9.33;;;7.00;99.90;;;;;;5078929;28;20016;-48
2022/06/02 03:00:05;;;;;;;11.38;9.38;;;7.00;99.90;;;;;;5233161;22;20120;-50
2022/06/02 03:02:53;;;;;;;10.02;8.95;;;7.00;99.90;;;;;;5088838;28;20024;-50
2022/06/02 03:06:09;;;;;;;12.07;9.02;;;7.00;99.90;;;;;;5082254;28;20062;-46
2022/06/02 03:08:52;;;;;;;10.70;9.32;;;7.00;99.90;;;;;;5077599;28;20040;-50
2022/06/02 03:11:45;;;;;;;9.63;8.48;;;7.00;99.90;;;;;;5067200;28;20402;-49
2022/06/02 03:14:26;;;;;;;12.57;9.35;;;7.00;99.90;;;;;;5069337;28;20491;-49
2022/06/02 03:17:22;;;;;;;10.70;9.00;;;7.00;99.90;;;;;;5069502;28;20497;-50
2022/06/02 03:20:18;;;;;;;11.38;8.77;;;7.00;99.90;;;;;;5069107;28;20132;-49
2022/06/02 03:23:06;;;;;;;12.48;9.48;;;7.00;99.90;;;;;;5065244;28;20644;-47
2022/06/02 03:25:48;;;;;;;10.23;9.23;;;7.00;99.90;;;;;;5063683;28;20641;-49
2022/06/02 03:28:43;;;;;;;10.85;9.13;;;7.00;99.90;;;;;;5069146;28;20103;-46
2022/06/02 03:31:23;;;;;;;10.98;9.77;;;7.00;99.90;;;;;;5069335;28;20033;-51
2022/06/02 03:33:56;;;;;;;11.43;9.55;;;7.00;99.90;;;;;;5066404;28;20033;-49
2022/06/02 03:36:34;;;;;;;11.43;9.10;;;7.00;99.90;;;;;;5069433;28;20107;-47
2022/06/02 03:39:06;;;;;;;10.00;8.95;;;7.00;99.90;;;;;;5069067;28;20107;-50
2022/06/02 03:41:50;;;;;;;11.60;9.32;;;7.00;99.90;;;;;;5069179;28;20016;-48
2022/06/02 03:44:22;;;;;;;9.60;8.35;;;7.00;99.90;;;;;;5068289;28;20375;-46
2022/06/02 03:46:58;;;;;;;10.10;8.75;;;7.10;99.90;;;;;;5071512;28;20032;-49
2022/06/02 03:49:45;;;;;;;10.30;8.07;;;7.00;99.90;;;;;;5072336;28;20059;-46
2022/06/02 03:52:28;;;;;;;9.75;8.70;;;7.00;99.90;;;;;;5072666;28;20024;-46
2022/06/02 03:55:03;;;;;;;9.40;8.45;;;7.10;99.90;;;;;;5072706;28;20016;-49
2022/06/02 03:57:56;;;;;;;11.95;8.85;;;7.10;99.90;;;;;;5072965;28;20122;-46
2022/06/02 04:00:26;;;;;;;9.23;8.25;;;7.10;99.90;;;;;;5065639;28;20547;-47
2022/06/02 04:03:01;;;;;;;11.05;9.52;;;7.20;99.90;;;;;;5072327;28;20040;-47
2022/06/02 04:05:58;;;;;;;11.60;9.80;;;7.20;99.90;;;;;;5054891;28;20033;-46
2022/06/02 04:08:42;;;;;;;13.45;9.98;;;7.30;99.90;;;;;;5065745;28;20086;-46
2022/06/02 04:14:56;;;;;;;12.13;9.50;;;7.40;99.90;;;;;;5068836;28;20032;-46
2022/06/02 04:17:26;;;;;;;12.88;9.73;;;7.50;99.90;;;;;;5065716;28;20019;-46
2022/06/02 04:20:36;;;;;;;10.88;9.73;;;7.60;99.90;;;;;;5071798;28;20024;-47
2022/06/02 04:23:26;;;;;;;13.50;10.30;;;7.60;99.90;;;;;;5071974;28;20028;-46
2022/06/02 04:25:56;;;;;;;11.57;9.80;;;7.60;99.90;;;;;;5072075;28;20075;-47
2022/06/02 04:29:03;;;;;;;13.68;10.23;;;7.70;99.90;;;;;;5071875;28;20028;-50
2022/06/02 04:31:48;;;;;;;14.95;11.80;;;7.70;99.90;;;;;;5067679;28;20016;-47
2022/06/02 04:34:37;;;;;;;12.38;10.45;;;7.80;99.90;;;;;;5060619;28;20490;-48
2022/06/02 04:37:16;;;;;;;14.13;10.95;;;7.90;99.90;;;;;;5053477;28;20024;-50
2022/06/02 04:39:50;;;;;;;13.88;11.02;;;7.90;99.90;;;;;;5071773;28;20024;-51
2022/06/02 04:42:41;;;;;;;19.52;11.80;;;8.00;99.90;;;;;;5068427;28;20121;-46
2022/06/02 04:45:16;;;;;;;14.43;12.32;;;8.00;99.90;;;;;;5071954;28;20089;-46
2022/06/02 04:48:12;;;;;;;16.20;11.48;;;8.10;99.90;;;;;;5071843;28;20514;-47
2022/06/02 04:50:37;;;;;;;14.93;12.60;;;8.10;99.90;;;;;;5067439;28;20099;-46
2022/06/02 04:53:10;;;;;;;18.65;12.73;;;8.10;99.90;;;;;;5071719;28;20123;-46
2022/06/02 04:56:03;;;;;;;18.05;12.90;;;8.20;99.90;;;;;;5071653;28;20012;-47
2022/06/02 04:58:46;;;;;;;20.67;13.75;;;8.20;99.90;;;;;;5064338;28;20017;-46
2022/06/02 05:01:48;;;;;;;18.67;13.35;;;8.30;99.90;;;;;;5071189;28;20031;-48
2022/06/02 05:04:44;;;;;;;16.88;13.60;;;8.30;99.90;;;;;;5071509;28;20021;-46
2022/06/02 05:07:31;;;;;;;15.80;13.73;;;8.40;99.90;;;;;;5071579;28;20486;-46
2022/06/02 05:10:24;;;;;;;18.95;14.52;;;8.50;99.90;;;;;;5069111;28;20039;-51
2022/06/02 05:13:06;;;;;;;20.75;14.77;;;8.60;99.90;;;;;;5070861;28;20052;-53
2022/06/02 05:16:03;;;;;;;17.40;13.52;;;8.60;99.90;;;;;;5071363;28;20030;-49
2022/06/02 05:18:50;;;;;;;18.85;14.38;;;8.70;99.90;;;;;;5071338;28;20122;-49
2022/06/02 05:21:36;;;;;;;19.30;13.93;;;8.80;99.90;;;;;;5066779;28;20390;-47
2022/06/02 05:24:34;;;;;;;19.42;14.45;;;9.00;99.90;;;;;;5071364;28;20652;-50
2022/06/02 05:27:21;;;;;;;20.67;14.52;;;9.10;99.90;;;;;;5026826;28;20033;-53
2022/06/02 05:29:52;;;;;;;;;;;9.20;99.90;;;;;;5071541;28;20229;-48
2022/06/02 05:32:27;;;;;;;17.30;13.35;;;9.20;99.90;;;;;;5063400;28;19911;-48
2022/06/02 05:35:07;;;;;;;19.08;12.73;;;9.20;99.90;;;;;;5067950;28;20071;-50
2022/06/02 05:37:44;;;;;;;15.73;12.35;;;9.20;99.90;;;;;;5070689;28;20554;-47
2022/06/02 05:40:16;;;;;;;13.35;11.70;;;9.20;99.90;;;;;;5070780;28;20404;-50
2022/06/02 05:42:43;;;;;;;13.93;10.82;;;9.10;99.90;;;;;;5066360;28;20023;-49
2022/06/02 05:45:30;;;;;;;12.65;10.30;;;9.20;99.90;;;;;;5070857;28;20110;-47
2022/06/02 05:48:07;;;;;;;10.95;9.68;;;9.20;99.90;;;;;;5068273;28;20582;-47
2022/06/02 05:50:50;;;;;;;13.48;10.57;;;9.20;99.90;;;;;;5070709;28;20697;-46
2022/06/02 05:53:27;;;;;;;13.65;10.43;;;9.20;99.90;;;;;;5062638;28;20158;-51
2022/06/02 05:56:17;;;;;;;12.60;11.32;;;9.20;99.90;;;;;;5070627;28;20107;-49
2022/06/02 05:59:02;;;;;;;13.30;11.00;;;9.30;99.90;;;;;;5070695;28;20029;-46
2022/06/02 06:01:42;;;;;;;12.65;11.20;;;9.30;99.90;;;;;;5064029;28;20129;-50
2022/06/02 06:04:43;;;;;;;16.30;12.00;;;9.40;99.90;;;;;;5052559;28;20039;-47
2022/06/02 06:07:40;;;;;;;12.38;9.48;;;9.50;99.90;;;;;;5070889;28;20036;-46
2022/06/02 06:10:12;;;;;;;;;;;9.60;99.90;;;;;;5070614;28;20052;-49
2022/06/02 06:12:49;;;;;;;11.48;9.65;;;9.70;99.90;;;;;;5070099;28;19908;-47
2022/06/02 06:15:14;;;;;;;11.35;9.73;;;9.80;99.90;;;;;;5062173;28;20480;-47
2022/06/02 06:17:57;;;;;;;9.85;8.85;;;9.90;99.90;;;;;;5070393;28;20100;-48
2022/06/02 06:20:54;;;;;;;10.65;9.55;;;10.00;99.90;;;;;;5063101;28;20017;-47
2022/06/02 06:23:41;;;;;;;10.27;9.07;;;10.40;99.90;;;;;;5069082;28;20028;-47
2022/06/02 06:26:41;;;;;;;9.85;8.60;;;10.50;99.90;;;;;;5070188;28;20036;-49
2022/06/02 06:29:49;;;;;;;10.00;8.02;;;10.60;99.90;;;;;;5051877;28;20028;-47
2022/06/02 06:32:34;;;;;;;8.82;7.93;;;10.70;99.90;;;;;;4985576;28;20501;-45
2022/06/02 06:35:08;;;;;;;7.72;6.80;;;10.80;99.90;;;;;;5066627;28;20020;-52
2022/06/02 06:37:49;;;;;;;10.55;6.88;;;10.80;99.90;;;;;;5069737;28;20174;-51
2022/06/02 06:40:43;;;;;;;8.75;5.95;;;10.90;99.90;;;;;;5063772;28;20407;-48
2022/06/02 06:43:15;;;;;;;9.88;6.03;;;10.90;99.90;;;;;;5069314;28;20043;-49
2022/06/02 06:46:13;;;;;;;6.03;5.43;;;10.80;99.90;;;;;;5069821;28;20037;-46
2022/06/02 06:48:56;;;;;;;6.38;5.78;;;10.90;99.90;;;;;;5064505;28;20036;-47
2022/06/02 06:51:29;;;;;;;7.20;5.43;;;10.90;99.90;;;;;;5062266;28;20052;-49
2022/06/02 06:54:13;;;;;;;7.93;5.50;;;10.90;99.90;;;;;;5069477;28;20583;-47
2022/06/02 06:56:58;;;;;;;7.85;5.20;;;10.90;99.90;;;;;;5069794;28;20683;-46
2022/06/02 06:59:49;;;;;;;6.82;6.13;;;11.00;99.90;;;;;;5067341;28;20056;-48
2022/06/02 07:02:27;;;;;;;6.00;5.40;;;11.10;99.90;;;;;;5062754;28;20024;-52
2022/06/02 07:05:06;;;;;;;8.38;6.30;;;11.20;99.90;;;;;;5069477;28;20031;-52
2022/06/02 07:07:43;;;;;;;7.60;5.28;;;11.30;99.90;;;;;;5069615;28;20387;-50
2022/06/02 07:10:22;;;;;;;8.40;4.95;;;11.40;99.90;;;;;;5069031;28;20032;-48
2022/06/02 07:13:05;;;;;;;7.20;5.18;;;11.40;99.90;;;;;;5069239;28;20024;-45
2022/06/02 07:15:37;;;;;;;5.55;4.82;;;11.30;99.90;;;;;;5063243;28;20095;-46
2022/06/02 07:18:30;;;;;;;6.00;4.72;;;11.30;99.90;;;;;;5069348;28;20021;-47
2022/06/02 07:21:19;;;;;;;6.10;4.57;;;11.20;99.90;;;;;;5069972;28;20074;-47
2022/06/02 07:24:27;;;;;;;7.97;4.82;;;11.20;99.90;;;;;;5074119;28;20020;-46
2022/06/02 07:27:19;;;;;;;7.10;5.13;;;11.20;99.90;;;;;;5070842;28;20387;-51
2022/06/02 07:30:04;;;;;;;6.65;5.05;;;11.10;99.90;;;;;;5073231;28;20032;-45
2022/06/02 07:32:39;;;;;;;4.63;4.18;;;11.10;99.90;;;;;;5067259;28;20121;-46
2022/06/02 07:35:29;;;;;;;6.00;4.50;;;11.10;99.90;;;;;;5070266;28;20024;-45
2022/06/02 07:38:28;;;;;;;4.95;4.45;;;11.10;99.90;;;;;;5055468;28;20503;-46
2022/06/02 07:41:17;;;;;;;5.95;4.85;;;11.00;99.90;;;;;;5073557;28;20032;-46
2022/06/02 07:44:00;;;;;;;5.18;4.30;;;11.00;99.90;;;;;;5024028;28;20048;-51
2022/06/02 07:46:56;;;;;;;5.45;4.05;;;11.00;99.90;;;;;;5066744;28;20028;-50
2022/06/02 07:49:54;;;;;;;5.78;4.70;;;11.00;99.90;;;;;;5072288;28;20092;-47
2022/06/02 07:52:30;;;;;;;6.13;4.53;;;11.00;99.90;;;;;;5068443;28;20019;-47
2022/06/02 07:55:18;;;;;;;7.30;4.75;;;11.00;99.90;;;;;;5073331;28;20020;-50
2022/06/02 07:57:47;;;;;;;4.20;3.80;;;10.90;99.90;;;;;;5073187;28;20066;-47
2022/06/02 08:00:18;;;;;;;6.45;4.15;;;10.90;99.90;;;;;;5072928;28;20028;-46
2022/06/02 08:03:25;;;;;;;5.65;4.80;;;10.90;99.90;;;;;;5072784;28;20028;-47
2022/06/02 08:06:09;;;;;;;5.78;4.30;;;10.90;99.90;;;;;;5032521;28;20114;-46
2022/06/02 08:08:35;;;;;;;6.40;4.78;;;11.00;99.90;;;;;;5073014;28;20095;-46
2022/06/02 08:11:31;;;;;;;5.50;4.28;;;11.00;99.90;;;;;;5072285;28;20390;-46
2022/06/02 08:14:08;;;;;;;8.70;5.22;;;11.00;99.90;;;;;;5072708;28;20047;-46
2022/06/02 08:17:00;;;;;;;6.55;4.97;;;11.10;99.90;;;;;;5072686;28;20451;-48
2022/06/02 08:20:03;;;;;;;6.70;5.65;;;11.20;99.90;;;;;;5067353;28;20063;-46
2022/06/02 08:22:47;;;;;;;6.10;4.95;;;11.30;99.90;;;;;;5066199;28;20059;-47
2022/06/02 08:25:26;;;;;;;6.03;4.57;;;11.40;99.90;;;;;;5072562;28;20021;-46
2022/06/02 08:28:19;;;;;;;5.15;4.65;;;11.50;99.90;;;;;;5072244;28;20051;-46
2022/06/02 08:31:21;;;;;;;7.47;4.95;;;11.60;99.90;;;;;;5072098;28;20526;-48
2022/06/02 08:34:10;;;;;;;6.57;4.45;;;11.80;99.90;;;;;;5069425;28;20025;-46
2022/06/02 08:36:56;;;;;;;11.23;4.65;;;12.10;99.90;;;;;;5066930;28;20479;-46
2022/06/02 08:40:09;;;;;;;6.63;4.20;;;12.30;99.90;;;;;;5072425;28;20508;-46
2022/06/02 08:42:59;;;;;;;5.90;4.90;;;12.40;99.90;;;;;;5031885;28;20040;-51
2022/06/02 08:45:33;;;;;;;5.60;4.45;;;12.60;99.90;;;;;;5066737;28;20096;-52
2022/06/02 08:48:12;;;;;;;6.32;3.95;;;12.70;99.90;;;;;;5071860;28;20063;-52
2022/06/02 08:51:25;;;;;;;4.38;3.85;;;12.70;99.90;;;;;;5053843;28;20608;-51
2022/06/02 08:54:31;;;;;;;7.38;4.13;;;12.70;99.90;;;;;;5068496;28;20029;-49
2022/06/02 08:57:23;;;;;;;4.72;3.58;;;12.80;99.90;;;;;;5072002;28;20020;-50
2022/06/02 09:00:09;;;;;;;4.93;3.88;;;13.00;99.90;;;;;;5087015;22;20062;-50
2022/06/02 09:02:54;;;;;;;;;;;13.00;99.90;;;;;;5066759;28;20129;-48
2022/06/02 09:05:57;;;;;;;5.25;3.65;;;13.00;99.90;;;;;;5057954;28;19959;-47
2022/06/02 09:08:43;;;;;;;7.80;3.45;;;13.10;99.90;;;;;;5064693;28;20070;-48
2022/06/02 09:11:29;;;;;;;6.07;3.45;;;13.20;99.90;;;;;;5068363;28;20061;-51
2022/06/02 09:14:24;;;;;;;4.72;3.72;;;13.30;99.90;;;;;;5070536;28;20094;-47
2022/06/02 09:17:25;;;;;;;5.87;2.70;;;13.20;99.90;;;;;;5050677;28;20025;-46
2022/06/02 09:20:14;;;;;;;4.50;2.60;;;13.10;99.90;;;;;;5066595;28;20024;-50
2022/06/02 09:22:48;;;;;;;3.97;3.40;;;12.90;99.90;;;;;;5051209;28;20021;-51
2022/06/02 09:25:42;;;;;;;5.97;3.15;;;12.70;99.90;;;;;;5063111;28;20021;-49
2022/06/02 09:28:29;;;;;;;4.07;2.67;;;12.60;99.90;;;;;;5068117;28;20028;-49
2022/06/02 09:31:13;;;;;;;5.07;3.03;;;12.60;99.90;;;;;;5070172;28;20036;-50
2022/06/02 09:34:16;;;;;;;4.35;2.83;;;12.60;99.90;;;;;;5069528;28;20111;-48
2022/06/02 09:37:06;;;;;;;5.22;2.65;;;12.70;99.90;;;;;;5058083;28;20024;-47
2022/06/02 09:39:54;;;;;;;4.63;2.30;;;12.80;99.90;;;;;;5065246;28;20027;-51
2022/06/02 09:42:23;;;;;;;4.20;2.35;;;12.80;99.90;;;;;;5067159;28;20024;-47
2022/06/02 09:45:13;;;;;;;7.57;2.70;;;12.80;99.90;;;;;;5070342;28;20086;-51
2022/06/02 09:47:53;;;;;;;3.42;2.40;;;12.70;99.90;;;;;;5067864;28;20024;-51
2022/06/02 09:51:03;;;;;;;5.20;2.58;;;12.80;99.90;;;;;;5059476;28;20112;-52
2022/06/02 09:53:57;;;;;;;3.58;2.50;;;12.80;99.90;;;;;;5021999;28;20022;-49
2022/06/02 09:57:00;;;;;;;4.90;3.00;;;12.80;99.90;;;;;;4998935;28;20053;-50
2022/06/02 09:59:28;;;;;;;7.15;2.40;;;13.00;99.90;;;;;;5073774;28;20610;-49
2022/06/02 10:01:57;;;;;;;4.20;2.35;;;13.10;99.90;;;;;;5069186;28;20040;-48
2022/06/02 10:04:46;;;;;;;4.88;2.47;;;13.00;99.90;;;;;;5065024;28;20039;-47
2022/06/02 10:07:31;;;;;;;4.05;2.28;;;12.90;99.90;;;;;;5067293;28;20060;-48
2022/06/02 10:10:25;;;;;;;3.30;2.53;;;12.90;99.90;;;;;;5047263;28;20547;-50
2022/06/02 10:13:26;;;;;;;6.45;2.50;;;12.80;99.90;;;;;;5069350;28;20339;-47
2022/06/02 10:16:10;;;;;;;7.85;2.25;;;12.80;99.90;;;;;;5066263;28;20016;-48
2022/06/02 10:19:00;;;;;;;2.38;2.15;;;12.90;99.90;;;;;;5046987;28;20452;-46
2022/06/02 10:21:38;;;;;;;3.55;1.80;;;13.00;99.90;;;;;;5064496;28;20024;-48
2022/06/02 10:24:07;;;;;;;6.25;2.47;;;13.10;99.90;;;;;;5068046;28;20449;-47
2022/06/02 10:26:41;;;;;;;4.03;2.22;;;13.20;99.90;;;;;;5064732;28;20099;-48
2022/06/02 10:29:40;;;;;;;4.35;2.90;;;13.40;99.90;;;;;;5051925;28;20766;-47
2022/06/02 10:32:44;;;;;;;4.10;2.70;;;13.40;99.90;;;;;;5065161;28;20085;-47
2022/06/02 10:35:18;;;;;;;5.47;2.92;;;13.50;99.90;;;;;;5066196;28;20325;-47
2022/06/02 10:37:50;;;;;;;4.90;2.20;;;13.70;99.90;;;;;;5069749;28;20044;-49
2022/06/02 10:40:41;;;;;;;4.03;2.15;;;13.80;99.90;;;;;;5060812;28;20021;-50
2022/06/02 10:43:28;;;;;;;2.70;2.25;;;13.90;99.90;;;;;;5068589;28;20510;-48
2022/06/02 10:45:59;;;;;;;;;;;14.10;99.90;;;;;;5065967;28;20386;-49
2022/06/02 10:48:44;;;;;;;7.03;2.30;;;14.20;99.90;;;;;;5068097;28;19905;-49
2022/06/02 10:51:47;;;;;;;5.68;2.10;;;14.30;99.90;;;;;;5064491;28;20029;-46
2022/06/02 10:54:37;;;;;;;2.53;1.60;;;14.60;99.90;;;;;;5066575;28;20029;-48
2022/06/02 10:57:03;;;;;;;5.57;1.75;;;14.50;99.90;;;;;;5066929;28;20489;-48
2022/06/02 11:00:03;;;;;;;4.60;1.60;;;14.40;99.90;;;;;;5066988;28;20025;-52
2022/06/02 11:02:41;;;;;;;3.95;1.50;;;14.30;99.90;;;;;;4992683;28;20525;-47
2022/06/02 11:05:40;;;;;;;6.22;1.98;;;14.30;99.90;;;;;;5067720;28;20101;-51
2022/06/02 11:08:12;;;;;;;5.63;1.65;;;14.20;99.90;;;;;;5069691;28;20020;-51
2022/06/02 11:10:40;;;;;;;3.63;1.95;;;14.20;99.90;;;;;;5067315;28;20466;-48
2022/06/02 11:13:25;;;;;;;3.80;2.22;;;14.30;99.90;;;;;;5068870;28;20024;-50
2022/06/02 11:16:02;;;;;;;5.47;1.30;;;14.50;99.90;;;;;;5065948;28;20036;-46
2022/06/02 11:18:55;;;;;;;3.88;1.70;;;14.70;99.90;;;;;;5063098;28;20418;-49
2022/06/02 11:21:32;;;;;;;3.75;1.60;;;14.70;99.90;;;;;;5063381;28;20494;-50
2022/06/02 11:24:34;;;;;;;2.33;1.67;;;14.70;99.90;;;;;;5068364;28;20039;-48
2022/06/02 11:27:34;;;;;;;1.38;1.17;;;14.60;99.90;;;;;;5049457;28;20032;-48
2022/06/02 11:30:36;;;;;;;2.97;1.77;;;14.70;99.90;;;;;;5068565;28;20025;-47
2022/06/02 11:33:15;;;;;;;3.55;1.65;;;14.80;99.90;;;;;;5063962;28;20021;-50
2022/06/02 11:36:04;;;;;;;3.65;1.92;;;14.90;99.90;;;;;;5066314;28;20013;-48
2022/06/02 11:39:07;;;;;;;3.30;2.03;;;15.00;99.90;;;;;;5063424;28;20600;-47
2022/06/02 11:41:44;;;;;;;2.50;1.63;;;15.10;99.90;;;;;;5063557;28;20024;-50
2022/06/02 11:44:15;;;;;;;3.88;2.00;;;15.20;99.90;;;;;;5068035;28;20028;-50
2022/06/02 11:46:49;;;;;;;5.95;1.83;;;15.20;99.90;;;;;;5064787;28;20833;-46
2022/06/02 11:49:18;;;;;;;2.78;1.70;;;15.30;99.90;;;;;;5067472;28;20109;-48
2022/06/02 11:52:17;;;;;;;6.90;2.42;;;15.40;99.90;;;;;;5046172;28;20478;-48
2022/06/02 11:55:20;;;;;;;3.78;1.75;;;15.40;99.90;;;;;;5064937;28;20106;-50
2022/06/02 11:58:12;;;;;;;2.92;1.35;;;15.50;99.90;;;;;;5063990;28;20562;-48
2022/06/02 12:00:49;;;;;;;2.17;1.30;;;15.60;99.90;;;;;;5068889;28;20566;-46
2022/06/02 12:03:15;;;;;;;5.03;1.85;;;15.80;99.90;;;;;;5060800;28;20509;-50
2022/06/02 12:05:50;;;;;;;2.78;1.40;;;16.00;99.90;;;;;;5067108;28;20027;-48
2022/06/02 12:08:37;;;;;;;5.57;1.80;;;16.20;99.90;;;;;;5066687;28;20020;-51
2022/06/02 12:11:23;;;;;;;2.60;2.13;;;16.00;99.90;;;;;;5069359;28;20031;-50
2022/06/02 12:14:22;;;;;;;2.55;1.52;;;15.90;99.90;;;;;;5072612;28;20020;-50
2022/06/02 12:17:03;;;;;;;6.35;1.60;;;15.80;99.90;;;;;;5069134;28;20062;-49
2022/06/02 12:19:50;;;;;;;2.90;1.25;;;15.80;99.90;;;;;;5063190;28;20032;-47
2022/06/02 12:22:53;;;;;;;3.50;1.45;;;15.90;99.90;;;;;;5064474;28;20031;-50
2022/06/02 12:25:19;;;;;;;6.43;2.10;;;15.90;99.90;;;;;;5049316;28;20027;-48
2022/06/02 12:28:12;;;;;;;4.50;1.88;;;15.80;99.90;;;;;;5069847;28;20099;-51
2022/06/02 12:31:15;;;;;;;2.83;1.63;;;15.80;99.90;;;;;;5067522;28;20115;-47
2022/06/02 12:33:49;;;;;;;2.28;1.63;;;15.80;99.90;;;;;;5059430;28;20394;-50
2022/06/02 12:36:55;;;;;;;3.72;1.67;;;16.00;99.90;;;;;;5064243;28;20382;-47
2022/06/02 12:39:26;;;;;;;4.95;1.83;;;16.10;99.90;;;;;;5064672;28;20036;-49
2022/06/02 12:42:20;;;;;;;4.53;1.67;;;16.10;99.90;;;;;;5067437;28;20520;-51
2022/06/02 12:45:14;;;;;;;3.78;1.50;;;15.90;99.90;;;;;;5067978;28;20028;-52
2022/06/02 12:48:04;;;;;;;4.53;1.83;;;15.80;99.90;;;;;;5067189;28;20032;-52
2022/06/02 12:50:57;;;;;;;7.20;1.52;;;15.80;99.90;;;;;;5060984;28;20479;-48
2022/06/02 12:53:32;;;;;;;3.13;1.65;;;15.80;99.90;;;;;;5050334;28;20068;-47
2022/06/02 12:56:28;;;;;;;3.67;1.48;;;15.90;99.90;;;;;;5051097;28;20044;-50
2022/06/02 12:59:09;;;;;;;4.88;1.38;;;16.00;99.90;;;;;;5067336;28;20020;-51
2022/06/02 13:02:05;;;;;;;4.80;1.50;;;16.10;99.90;;;;;;5065838;28;20037;-47
2022/06/02 13:05:18;;;;;;;4.18;1.70;;;16.10;99.90;;;;;;5067763;28;20022;-48
2022/06/02 13:08:21;;;;;;;4.18;1.70;;;16.20;99.90;;;;;;4965929;28;20605;-47
2022/06/02 13:11:14;;;;;;;4.05;1.67;;;16.20;99.90;;;;;;5066369;28;20145;-48
2022/06/02 13:14:02;;;;;;;3.83;1.42;;;16.30;99.90;;;;;;5048604;28;20476;-48
2022/06/02 13:16:57;;;;;;;3.47;1.50;;;16.40;99.90;;;;;;5068372;28;20021;-52
2022/06/02 13:19:48;;;;;;;3.50;1.70;;;16.40;99.90;;;;;;5059948;28;20508;-47
2022/06/02 13:22:48;;;;;;;4.30;1.27;;;16.50;99.90;;;;;;5068668;28;20111;-47
2022/06/02 13:25:39;;;;;;;2.63;1.30;;;16.60;99.90;;;;;;5065813;28;20028;-50
2022/06/02 13:28:32;;;;;;;5.35;1.25;;;16.70;99.90;;;;;;5068012;28;20385;-47
2022/06/02 13:31:49;;;;;;;7.07;1.42;;;16.80;99.90;;;;;;5069622;28;20032;-49
2022/06/02 13:34:45;;;;;;;4.83;1.93;;;17.00;99.90;;;;;;5045271;28;20024;-50
2022/06/02 13:37:20;;;;;;;3.28;1.45;;;17.10;99.90;;;;;;5067352;28;20263;-52
2022/06/02 13:40:39;;;;;;;4.57;1.67;;;17.00;99.90;;;;;;5071166;28;20025;-52
2022/06/02 13:43:07;;;;;;;3.13;1.40;;;17.00;99.90;;;;;;5007911;28;20030;-48
2022/06/02 13:45:57;;;;;;;5.68;1.60;;;17.00;99.90;;;;;;5003300;28;20513;-49
2022/06/02 13:48:28;;;;;;;6.38;1.67;;;17.00;99.90;;;;;;5030970;28;20036;-50
2022/06/02 13:50:54;;;;;;;5.53;1.77;;;17.10;99.90;;;;;;5065324;28;20024;-47
2022/06/02 13:57:30;;;;;;;4.82;1.40;;;17.00;99.90;;;;;;5067901;28;20394;-48
2022/06/02 13:59:54;;;;;;;5.63;1.67;;;16.70;99.90;;;;;;5066855;28;20102;-48
2022/06/02 14:02:41;;;;;;;5.25;2.08;;;16.70;99.90;;;;;;5059932;28;20033;-46
2022/06/02 14:05:20;;;;;;;2.58;1.35;;;16.70;99.90;;;;;;5069609;28;20036;-51
2022/06/02 14:08:07;;;;;;;4.28;2.03;;;16.70;99.90;;;;;;5047462;28;20463;-48
2022/06/02 14:10:32;;;;;;;;;;;16.90;99.90;;;;;;5065216;28;20020;-52
2022/06/02 14:13:10;;;;;;;6.27;1.80;;;16.70;99.90;;;;;;5051611;28;19904;-48
2022/06/02 14:16:02;;;;;;;5.05;1.90;;;16.60;99.90;;;;;;5066402;28;20028;-48
2022/06/02 14:18:50;;;;;;;3.75;1.48;;;16.70;99.90;;;;;;5068777;28;20017;-49
2022/06/02 14:21:33;;;;;;;4.70;1.58;;;16.70;99.90;;;;;;5045967;28;20017;-48
2022/06/02 14:24:05;;;;;;;5.15;2.08;;;16.80;99.90;;;;;;5068854;28;20183;-47
2022/06/02 14:26:46;;;;;;;5.38;1.65;;;16.50;99.90;;;;;;5064250;28;20021;-48
2022/06/02 14:29:37;;;;;;;4.70;1.80;;;16.70;99.90;;;;;;5069364;28;20036;-50
2022/06/02 14:32:24;;;;;;;6.30;1.80;;;16.90;99.90;;;;;;5064528;28;20108;-47
2022/06/02 14:35:19;;;;;;;5.00;1.35;;;16.90;99.90;;;;;;5050636;28;20017;-46
2022/06/02 14:38:00;;;;;;;5.22;1.77;;;16.80;99.90;;;;;;5065710;28;20486;-49